Time;durP1;ratioP1;P1;durP2;ratioP2;P2;SDS_P1;SDS_P2;PMS_P1;PMS_P2;Temp;Humidity;BMP_temperature;BMP_pressure;BME280_temperature;BME280_humidity;BME280_pressure;Samples;Min_cycle;Max_cycle;Signal;HPM_P1;HPM_P2
2022/07/08 18:44:51;;;;;;;0.15;0.15;;;21.40;98.10;;;;;;5111208;27;20426;-82
2022/07/08 18:47:17;;;;;;;0.22;0.22;;;21.30;98.30;;;;;;5109872;28;20035;-81
2022/07/08 18:49:43;;;;;;;0.13;0.13;;;21.30;98.60;;;;;;5111041;28;20038;-80
2022/07/08 18:52:08;;;;;;;0.43;0.43;;;21.30;98.80;;;;;;5111546;28;20098;-81
2022/07/08 18:54:34;;;;;;;0.40;0.40;;;21.30;98.60;;;;;;5127089;27;20054;-82
2022/07/08 18:57:00;;;;;;;0.40;0.17;;;21.30;98.60;;;;;;5111314;28;20455;-83
2022/07/08 18:59:26;;;;;;;1.85;0.60;;;21.30;98.70;;;;;;5109738;28;20045;-83
2022/07/08 19:01:52;;;;;;;0.03;0.03;;;21.30;98.50;;;;;;5109990;28;20019;-83
2022/07/08 19:04:17;;;;;;;0.40;0.40;;;21.30;98.50;;;;;;5126935;28;20050;-83
2022/07/08 19:06:43;;;;;;;1.00;0.70;;;21.40;98.60;;;;;;5111187;28;20019;-83
2022/07/08 19:09:09;;;;;;;0.20;0.20;;;21.30;98.50;;;;;;5111317;28;20020;-82
2022/07/08 19:11:34;;;;;;;0.50;0.50;;;21.30;98.60;;;;;;5109948;28;20081;-82
2022/07/08 19:14:00;;;;;;;1.10;0.55;;;21.30;98.50;;;;;;5110018;28;20030;-86
2022/07/08 19:16:26;;;;;;;0.00;0.00;;;21.40;98.20;;;;;;5111175;28;20024;-83
2022/07/08 19:18:52;;;;;;;0.20;0.20;;;21.30;98.10;;;;;;5111064;28;20031;-84
2022/07/08 19:21:18;;;;;;;0.47;0.47;;;21.30;98.20;;;;;;5109730;28;20193;-83
2022/07/08 19:23:44;;;;;;;0.90;0.45;;;21.30;98.00;;;;;;5110791;28;20027;-82
2022/07/08 19:26:10;;;;;;;0.10;0.10;;;21.30;98.10;;;;;;5126552;28;20485;-83
2022/07/08 19:28:36;;;;;;;0.63;0.38;;;21.30;98.00;;;;;;5110351;28;20020;-84
2022/07/08 19:31:02;;;;;;;0.00;0.00;;;21.30;98.20;;;;;;5110608;28;20462;-82
2022/07/08 19:33:28;;;;;;;0.10;0.10;;;21.20;98.30;;;;;;5109108;28;20078;-82
2022/07/08 19:35:53;;;;;;;0.20;0.15;;;21.20;98.40;;;;;;5110552;28;20042;-82
2022/07/08 19:38:19;;;;;;;2.83;1.20;;;21.20;98.50;;;;;;5125120;28;20024;-81
2022/07/08 19:40:45;;;;;;;0.10;0.10;;;21.10;98.60;;;;;;5106754;28;20020;-82
2022/07/08 19:43:12;;;;;;;0.03;0.03;;;21.20;98.70;;;;;;5108728;28;20055;-81
2022/07/08 19:45:38;;;;;;;0.30;0.30;;;21.10;98.70;;;;;;5109084;28;20435;-81
2022/07/08 19:48:06;;;;;;;0.30;0.30;;;21.10;98.60;;;;;;5110409;28;20055;-81
2022/07/08 19:50:32;;;;;;;0.13;0.13;;;21.10;98.60;;;;;;5109008;28;20550;-82
2022/07/08 19:52:58;;;;;;;0.28;0.28;;;21.10;98.80;;;;;;5108929;28;20127;-81
2022/07/08 19:55:24;;;;;;;0.47;0.47;;;21.10;99.00;;;;;;5101208;28;20060;-83
2022/07/08 19:57:50;;;;;;;1.33;0.43;;;21.10;98.70;;;;;;5095260;28;20081;-83
2022/07/08 20:00:16;;;;;;;0.30;0.30;;;21.00;98.70;;;;;;5095072;28;20501;-80
2022/07/08 20:02:42;;;;;;;0.43;0.32;;;21.00;98.90;;;;;;5096458;28;20032;-81
2022/07/08 20:05:08;;;;;;;0.05;0.05;;;21.00;99.10;;;;;;5095461;28;20025;-84
2022/07/08 20:07:34;;;;;;;0.43;0.43;;;20.90;99.10;;;;;;5095078;28;20024;-84
2022/07/08 20:09:59;;;;;;;2.47;0.47;;;20.90;99.00;;;;;;5095187;28;20024;-84
2022/07/08 20:12:25;;;;;;;0.10;0.10;;;20.90;99.30;;;;;;5094959;28;20074;-81
2022/07/08 20:14:52;;;;;;;0.20;0.20;;;20.90;99.20;;;;;;5094965;28;20063;-84
2022/07/08 20:17:18;;;;;;;0.35;0.35;;;20.90;99.20;;;;;;5096191;28;20016;-83
2022/07/08 20:19:46;;;;;;;0.00;0.00;;;20.90;99.30;;;;;;5095420;28;20047;-85
2022/07/08 20:22:12;;;;;;;0.22;0.22;;;20.90;99.40;;;;;;5096179;28;20077;-83
2022/07/08 20:24:37;;;;;;;0.88;0.68;;;20.90;99.60;;;;;;5094878;28;20363;-84
2022/07/08 20:27:04;;;;;;;0.17;0.17;;;20.80;99.50;;;;;;5096025;28;20080;-83
2022/07/08 20:29:30;;;;;;;0.28;0.28;;;20.70;99.80;;;;;;5096266;28;20366;-83
2022/07/08 20:31:55;;;;;;;0.20;0.20;;;20.80;99.80;;;;;;5096046;28;20095;-83
2022/07/08 20:34:21;;;;;;;0.70;0.65;;;20.80;99.70;;;;;;5094564;28;20032;-83
2022/07/08 20:36:50;;;;;;;0.15;0.15;;;20.70;99.80;;;;;;5094706;28;20036;-82
2022/07/08 20:39:16;;;;;;;0.03;0.03;;;20.70;99.70;;;;;;5094456;28;20050;-82
2022/07/08 20:44:25;;;;;;;0.25;0.25;;;20.70;99.90;;;;;;5095526;28;20462;-83
2022/07/08 20:46:53;;;;;;;0.20;0.20;;;20.60;99.90;;;;;;5095798;28;20044;-83
2022/07/08 20:49:19;;;;;;;0.40;0.40;;;20.60;99.90;;;;;;5088747;28;20379;-83
2022/07/08 20:51:45;;;;;;;1.05;1.05;;;20.70;99.90;;;;;;5093865;28;20032;-83
2022/07/08 20:54:10;;;;;;;0.70;0.70;;;20.70;99.90;;;;;;5094282;28;20100;-82
2022/07/08 20:56:36;;;;;;;0.45;0.45;;;20.70;99.90;;;;;;5110998;28;20416;-83
2022/07/08 20:59:02;;;;;;;0.30;0.30;;;20.60;99.90;;;;;;5095364;28;20123;-81
2022/07/08 21:01:28;;;;;;;0.40;0.40;;;20.60;99.90;;;;;;5094004;28;20086;-79
2022/07/08 21:03:53;;;;;;;0.35;0.35;;;20.50;99.90;;;;;;5093869;28;20071;-79
2022/07/08 21:06:19;;;;;;;0.38;0.30;;;20.60;99.90;;;;;;5093951;28;20031;-81
2022/07/08 21:08:45;;;;;;;0.47;0.47;;;20.60;99.90;;;;;;5093727;28;20046;-80
2022/07/08 21:11:10;;;;;;;0.45;0.45;;;20.70;99.90;;;;;;5095373;28;20040;-81
2022/07/08 21:13:36;;;;;;;0.45;0.45;;;20.60;99.90;;;;;;5095171;28;20024;-81
2022/07/08 21:16:03;;;;;;;0.47;0.43;;;20.60;99.90;;;;;;5093757;28;20027;-81
2022/07/08 21:18:28;;;;;;;0.65;0.65;;;20.50;99.90;;;;;;5095109;28;20031;-81
2022/07/08 21:20:54;;;;;;;0.35;0.35;;;20.50;99.90;;;;;;5093494;28;20032;-82
2022/07/08 21:23:19;;;;;;;0.20;0.20;;;20.50;99.90;;;;;;5110211;28;20032;-81
2022/07/08 21:25:45;;;;;;;0.00;0.00;;;20.50;99.90;;;;;;5093585;28;20024;-81
2022/07/08 21:28:11;;;;;;;0.05;0.05;;;20.50;99.90;;;;;;5093517;28;20104;-82
2022/07/08 21:30:36;;;;;;;0.32;0.32;;;20.50;99.90;;;;;;5093503;28;20485;-82
2022/07/08 21:33:02;;;;;;;0.43;0.43;;;20.40;99.90;;;;;;5094843;28;20378;-82
2022/07/08 21:35:28;;;;;;;0.70;0.40;;;20.50;99.90;;;;;;5093451;28;20034;-81
2022/07/08 21:37:56;;;;;;;0.20;0.17;;;20.50;99.90;;;;;;5093516;28;20038;-81
2022/07/08 21:40:23;;;;;;;0.00;0.00;;;20.40;99.90;;;;;;5094615;28;20039;-81
2022/07/08 21:42:48;;;;;;;0.73;0.50;;;20.50;99.90;;;;;;5092933;28;20081;-81
2022/07/08 21:45:14;;;;;;;0.28;0.28;;;20.40;99.90;;;;;;5094561;28;20432;-82
2022/07/08 21:47:40;;;;;;;1.27;0.43;;;20.40;99.90;;;;;;5094542;28;20024;-81
2022/07/08 21:50:06;;;;;;;0.30;0.30;;;20.40;99.90;;;;;;5094195;28;20062;-81
2022/07/08 21:52:33;;;;;;;6.43;0.35;;;20.40;99.90;;;;;;5093187;28;20124;-82
2022/07/08 21:54:59;;;;;;;0.30;0.30;;;20.40;99.90;;;;;;5094315;28;20028;-82
2022/07/08 21:57:24;;;;;;;0.00;0.00;;;20.40;99.90;;;;;;5094230;28;20378;-82
2022/07/08 21:59:50;;;;;;;0.30;0.25;;;20.40;99.90;;;;;;5090491;28;20027;-82
2022/07/08 22:02:16;;;;;;;0.30;0.30;;;20.40;99.90;;;;;;5094151;28;20091;-81
2022/07/08 22:04:42;;;;;;;0.30;0.30;;;20.40;99.90;;;;;;5093043;28;20020;-82
2022/07/08 22:07:08;;;;;;;0.20;0.20;;;20.40;99.90;;;;;;5109843;28;20020;-82
2022/07/08 22:09:34;;;;;;;0.10;0.10;;;20.30;99.90;;;;;;5093915;28;20077;-81
2022/07/08 22:12:00;;;;;;;0.20;0.20;;;20.20;99.90;;;;;;5092765;28;20466;-82
2022/07/08 22:14:26;;;;;;;0.30;0.30;;;20.20;99.90;;;;;;5094003;28;20103;-82
2022/07/08 22:16:53;;;;;;;2.13;0.57;;;20.20;99.90;;;;;;5092767;28;20093;-82
2022/07/08 22:19:19;;;;;;;0.00;0.00;;;20.10;99.90;;;;;;5093690;28;20077;-81
2022/07/08 22:21:45;;;;;;;0.10;0.10;;;20.10;99.90;;;;;;5093913;28;20020;-81
2022/07/08 22:24:11;;;;;;;0.05;0.05;;;20.10;99.90;;;;;;5092561;28;20475;-81
2022/07/08 22:26:37;;;;;;;0.65;0.52;;;20.10;99.90;;;;;;5092532;28;20534;-82
2022/07/08 22:29:02;;;;;;;0.20;0.20;;;20.10;99.90;;;;;;5109564;28;20474;-81
2022/07/08 22:31:28;;;;;;;0.00;0.00;;;20.10;99.90;;;;;;5093902;28;20142;-81
2022/07/08 22:33:53;;;;;;;0.13;0.13;;;20.10;99.90;;;;;;5093676;28;20028;-81
2022/07/08 22:36:24;;;;;;;0.75;0.45;;;20.10;99.90;;;;;;5093964;28;20027;-81
2022/07/08 22:38:50;;;;;;;0.43;0.43;;;20.10;99.90;;;;;;5109612;28;20489;-81
2022/07/08 22:41:16;;;;;;;3.30;0.20;;;20.00;99.90;;;;;;5092421;28;20028;-81
2022/07/08 22:43:42;;;;;;;0.40;0.40;;;20.00;99.90;;;;;;5092157;28;20421;-81
2022/07/08 22:46:08;;;;;;;0.20;0.20;;;20.00;99.90;;;;;;5109357;28;20031;-81
2022/07/08 22:48:33;;;;;;;0.50;0.40;;;19.90;99.90;;;;;;5093494;28;20036;-81
2022/07/08 22:50:59;;;;;;;0.63;0.63;;;19.90;99.90;;;;;;5092374;28;20024;-81
2022/07/08 22:53:25;;;;;;;0.10;0.10;;;19.90;99.90;;;;;;5093503;28;20073;-81
2022/07/08 22:55:50;;;;;;;0.08;0.08;;;19.90;99.90;;;;;;5092391;28;20464;-81
2022/07/08 22:58:16;;;;;;;0.00;0.00;;;19.90;99.90;;;;;;5109204;28;20033;-80
2022/07/08 23:00:41;;;;;;;0.47;0.47;;;19.90;99.90;;;;;;5092107;28;20028;-81
2022/07/08 23:03:07;;;;;;;0.10;0.10;;;19.80;99.90;;;;;;5108965;28;20028;-81
2022/07/08 23:05:33;;;;;;;0.00;0.00;;;19.90;99.90;;;;;;5093766;28;20066;-81
2022/07/08 23:07:59;;;;;;;0.00;0.00;;;19.90;99.90;;;;;;5092998;28;20497;-81
2022/07/08 23:10:24;;;;;;;1.88;0.52;;;19.90;99.90;;;;;;5089841;28;20028;-81
2022/07/08 23:12:50;;;;;;;0.03;0.03;;;19.80;99.90;;;;;;5093377;28;20073;-81
2022/07/08 23:15:16;;;;;;;0.25;0.25;;;19.90;99.90;;;;;;5093421;28;20024;-81
2022/07/08 23:17:42;;;;;;;0.00;0.00;;;19.80;99.90;;;;;;5092217;28;20031;-81
2022/07/08 23:20:08;;;;;;;0.10;0.10;;;19.80;99.90;;;;;;5092028;28;20021;-81
2022/07/08 23:22:34;;;;;;;0.20;0.20;;;19.80;99.90;;;;;;5092993;28;20104;-80
2022/07/08 23:25:00;;;;;;;0.20;0.20;;;19.90;99.90;;;;;;5092105;28;20115;-80
2022/07/08 23:27:26;;;;;;;0.17;0.17;;;19.90;99.90;;;;;;5093245;28;20020;-80
2022/07/08 23:29:52;;;;;;;0.63;0.52;;;19.90;99.90;;;;;;5093551;28;20024;-80
2022/07/08 23:32:18;;;;;;;0.10;0.10;;;19.90;99.90;;;;;;5096803;28;20359;-81
2022/07/08 23:34:44;;;;;;;0.17;0.17;;;19.90;99.90;;;;;;5095607;28;20509;-80
2022/07/08 23:37:10;;;;;;;0.00;0.00;;;20.00;99.90;;;;;;5095561;28;20032;-80
2022/07/08 23:39:35;;;;;;;0.50;0.50;;;19.90;99.90;;;;;;5096926;28;20103;-80
2022/07/08 23:42:01;;;;;;;0.13;0.13;;;19.90;99.90;;;;;;5096618;28;20364;-79
2022/07/08 23:44:26;;;;;;;0.30;0.20;;;19.90;99.90;;;;;;5096481;28;20449;-80
2022/07/08 23:46:52;;;;;;;0.10;0.10;;;19.90;99.90;;;;;;5096726;28;20024;-80
2022/07/08 23:49:18;;;;;;;0.03;0.03;;;19.80;99.90;;;;;;5096620;28;20028;-80
2022/07/08 23:51:44;;;;;;;0.20;0.20;;;19.80;99.90;;;;;;5095361;28;20497;-80
2022/07/08 23:54:09;;;;;;;0.20;0.20;;;19.70;99.90;;;;;;5095460;28;20086;-79
2022/07/08 23:56:35;;;;;;;0.25;0.25;;;19.60;99.90;;;;;;5096598;28;20032;-79
2022/07/08 23:59:01;;;;;;;0.20;0.20;;;19.60;99.90;;;;;;5095198;28;20024;-78
